sensor_id;sensor_type;location;lat;lon;timestamp;pressure;altitude;pressure_sealevel;temperature;humidity
1776;BME280;885;42.626;23.200;2023-08-30T00:00:14;163194.19;;;19.00;100.00
1776;BME280;885;42.626;23.200;2023-08-30T00:02:42;162817.09;;;18.99;100.00
1776;BME280;885;42.626;23.200;2023-08-30T00:05:09;163174.31;;;18.92;100.00
1776;BME280;885;42.626;23.200;2023-08-30T00:07:36;162795.88;;;18.91;100.00
1776;BME280;885;42.626;23.200;2023-08-30T00:10:04;162006.28;;;18.77;100.00
1776;BME280;885;42.626;23.200;2023-08-30T00:12:32;162370.03;;;18.72;100.00
1776;BME280;885;42.626;23.200;2023-08-30T00:14:59;163114.59;;;18.70;100.00
1776;BME280;885;42.626;23.200;2023-08-30T00:17:26;163084.06;;;18.58;100.00
1776;BME280;885;42.626;23.200;2023-08-30T00:19:53;164218.94;;;18.61;100.00
1776;BME280;885;42.626;23.200;2023-08-30T00:22:21;164616.03;;;18.69;100.00
1776;BME280;885;42.626;23.200;2023-08-30T00:24:49;164226.91;;;18.64;100.00
1776;BME280;885;42.626;23.200;2023-08-30T00:27:15;163839.28;;;18.60;100.00
1776;BME280;885;42.626;23.200;2023-08-30T00:29:44;164229.63;;;18.65;100.00
1776;BME280;885;42.626;23.200;2023-08-30T00:32:10;163464.94;;;18.60;100.00
1776;BME280;885;42.626;23.200;2023-08-30T00:34:37;162663.47;;;18.41;100.00
1776;BME280;885;42.626;23.200;2023-08-30T00:37:07;163370.50;;;18.24;100.00
1776;BME280;885;42.626;23.200;2023-08-30T00:39:34;163704.59;;;18.09;100.00
1776;BME280;885;42.626;23.200;2023-08-30T00:42:04;164833.34;;;18.10;100.00
1776;BME280;885;42.626;23.200;2023-08-30T00:44:32;165619.31;;;18.23;100.00
1776;BME280;885;42.626;23.200;2023-08-30T00:47:01;165218.22;;;18.13;100.00
1776;BME280;885;42.626;23.200;2023-08-30T00:49:29;165605.88;;;18.18;100.00
1776;BME280;885;42.626;23.200;2023-08-30T00:51:56;165954.34;;;18.08;100.00
1776;BME280;885;42.626;23.200;2023-08-30T00:54:23;165971.94;;;18.14;100.00
1776;BME280;885;42.626;23.200;2023-08-30T00:56:50;165608.53;;;18.19;100.00
1776;BME280;885;42.626;23.200;2023-08-30T00:59:17;165616.66;;;18.22;100.00
1776;BME280;885;42.626;23.200;2023-08-30T01:01:45;165210.13;;;18.10;100.00
1776;BME280;885;42.626;23.200;2023-08-30T01:04:13;165187.28;;;18.02;100.00
1776;BME280;885;42.626;23.200;2023-08-30T01:06:41;164433.88;;;18.01;100.00
1776;BME280;885;42.626;23.200;2023-08-30T01:09:08;163264.16;;;17.84;100.00
1776;BME280;885;42.626;23.200;2023-08-30T01:11:39;164047.88;;;17.97;100.00
1776;BME280;885;42.626;23.200;2023-08-30T01:14:09;164077.22;;;18.08;100.00
1776;BME280;885;42.626;23.200;2023-08-30T01:16:37;163712.56;;;18.12;100.00
1776;BME280;885;42.626;23.200;2023-08-30T01:19:17;162964.66;;;18.13;100.00
1776;BME280;885;42.626;23.200;2023-08-30T01:21:56;161444.16;;;18.05;100.00
1776;BME280;885;42.626;23.200;2023-08-30T01:24:34;160713.63;;;18.13;100.00
1776;BME280;885;42.626;23.200;2023-08-30T01:27:10;159601.56;;;18.18;100.00
1776;BME280;885;42.626;23.200;2023-08-30T01:29:37;159231.75;;;18.20;100.00
1776;BME280;885;42.626;23.200;2023-08-30T01:32:08;158841.25;;;18.14;100.00
1776;BME280;885;42.626;23.200;2023-08-30T01:34:36;158440.59;;;18.04;100.00
1776;BME280;885;42.626;23.200;2023-08-30T01:37:06;158818.03;;;18.05;100.00
1776;BME280;885;42.626;23.200;2023-08-30T01:39:34;159165.72;;;17.94;100.00
1776;BME280;885;42.626;23.200;2023-08-30T01:42:01;156145.41;;;17.85;100.00
1776;BME280;885;42.626;23.200;2023-08-30T01:44:30;156532.66;;;17.90;100.00
1776;BME280;885;42.626;23.200;2023-08-30T01:46:59;156156.84;;;17.90;100.00
1776;BME280;885;42.626;23.200;2023-08-30T01:49:28;155789.94;;;17.93;100.00
1776;BME280;885;42.626;23.200;2023-08-30T01:51:57;152802.41;;;17.96;100.00
1776;BME280;885;42.626;23.200;2023-08-30T01:54:25;152421.97;;;17.93;100.00
1776;BME280;885;42.626;23.200;2023-08-30T01:56:53;146488.88;;;18.14;100.00
1776;BME280;885;42.626;23.200;2023-08-30T01:59:20;146886.50;;;18.24;100.00
1776;BME280;885;42.626;23.200;2023-08-30T02:01:48;147278.34;;;18.32;100.00
1776;BME280;885;42.626;23.200;2023-08-30T02:04:15;148385.97;;;18.26;100.00
1776;BME280;885;42.626;23.200;2023-08-30T02:06:45;148738.31;;;18.17;100.00
1776;BME280;885;42.626;23.200;2023-08-30T02:09:17;148733.50;;;18.15;100.00
1776;BME280;885;42.626;23.200;2023-08-30T02:11:46;149850.78;;;18.13;100.00
1776;BME280;885;42.626;23.200;2023-08-30T02:14:16;149456.09;;;18.04;100.00
1776;BME280;885;42.626;23.200;2023-08-30T02:16:45;150931.56;;;17.96;100.00
1776;BME280;885;42.626;23.200;2023-08-30T02:19:14;151677.34;;;17.95;100.00
1776;BME280;885;42.626;23.200;2023-08-30T02:21:42;152415.81;;;17.91;100.00
1776;BME280;885;42.626;23.200;2023-08-30T02:24:09;151271.28;;;17.82;100.00
1776;BME280;885;42.626;23.200;2023-08-30T02:26:36;152028.03;;;17.85;100.00
1776;BME280;885;42.626;23.200;2023-08-30T02:29:03;152371.25;;;17.73;100.00
1776;BME280;885;42.626;23.200;2023-08-30T02:31:30;152344.00;;;17.62;100.00
1776;BME280;885;42.626;23.200;2023-08-30T02:33:56;152334.13;;;17.58;100.00
1776;BME280;885;42.626;23.200;2023-08-30T02:36:25;151942.91;;;17.51;100.00
1776;BME280;885;42.626;23.200;2023-08-30T02:38:51;151543.13;;;17.40;100.00
1776;BME280;885;42.626;23.200;2023-08-30T02:41:18;150779.66;;;17.33;100.00
1776;BME280;885;42.626;23.200;2023-08-30T02:43:45;151148.47;;;17.31;100.00
1776;BME280;885;42.626;23.200;2023-08-30T02:46:12;150750.28;;;17.21;100.00
1776;BME280;885;42.626;23.200;2023-08-30T02:48:39;150746.56;;;17.20;100.00
1776;BME280;885;42.626;23.200;2023-08-30T02:51:05;151115.28;;;17.18;100.00
1776;BME280;885;42.626;23.200;2023-08-30T02:53:33;151493.84;;;17.20;100.00
1776;BME280;885;42.626;23.200;2023-08-30T02:56:00;150745.38;;;17.19;100.00
1776;BME280;885;42.626;23.200;2023-08-30T02:58:27;148865.66;;;17.14;100.00
1776;BME280;885;42.626;23.200;2023-08-30T03:00:53;148878.94;;;17.20;100.00
1776;BME280;885;42.626;23.200;2023-08-30T03:03:20;148530.84;;;17.30;100.00
1776;BME280;885;42.626;23.200;2023-08-30T03:05:47;148145.38;;;17.25;100.00
1776;BME280;885;42.626;23.200;2023-08-30T03:08:14;148167.00;;;17.34;100.00
1776;BME280;885;42.626;23.200;2023-08-30T03:10:42;148916.44;;;17.35;100.00
1776;BME280;885;42.626;23.200;2023-08-30T03:13:09;148533.28;;;17.31;100.00
1776;BME280;885;42.626;23.200;2023-08-30T03:15:35;147779.16;;;17.28;100.00
1776;BME280;885;42.626;23.200;2023-08-30T03:18:02;146987.09;;;17.09;100.00
1776;BME280;885;42.626;23.200;2023-08-30T03:20:29;147372.31;;;17.14;100.00
1776;BME280;885;42.626;23.200;2023-08-30T03:22:56;146625.84;;;17.14;100.00
1776;BME280;885;42.626;23.200;2023-08-30T03:25:24;145145.06;;;17.19;100.00
1776;BME280;885;42.626;23.200;2023-08-30T03:27:52;145546.50;;;17.31;100.00
1776;BME280;885;42.626;23.200;2023-08-30T03:30:19;145527.63;;;17.23;100.00
1776;BME280;885;42.626;23.200;2023-08-30T03:32:45;145903.16;;;17.24;100.00
1776;BME280;885;42.626;23.200;2023-08-30T03:35:12;145517.00;;;17.19;100.00
1776;BME280;885;42.626;23.200;2023-08-30T03:37:40;145504.03;;;17.13;100.00
1776;BME280;885;42.626;23.200;2023-08-30T03:40:07;145117.97;;;17.08;100.00
1776;BME280;885;42.626;23.200;2023-08-30T03:42:35;144722.69;;;16.98;100.00
1776;BME280;885;42.626;23.200;2023-08-30T03:45:03;144703.91;;;16.90;100.00
1776;BME280;885;42.626;23.200;2023-08-30T03:47:31;144324.00;;;16.87;100.00
1776;BME280;885;42.626;23.200;2023-08-30T03:49:57;144341.53;;;16.95;100.00
1776;BME280;885;42.626;23.200;2023-08-30T03:52:24;145083.84;;;16.93;100.00
1776;BME280;885;42.626;23.200;2023-08-30T03:54:51;144699.22;;;16.88;100.00
1776;BME280;885;42.626;23.200;2023-08-30T03:57:18;140263.47;;;17.04;100.00
1776;BME280;885;42.626;23.200;2023-08-30T03:59:44;141058.94;;;17.26;100.00
1776;BME280;885;42.626;23.200;2023-08-30T04:02:12;141455.81;;;17.37;100.00
1776;BME280;885;42.626;23.200;2023-08-30T04:04:39;138888.13;;;17.56;97.29
1776;BME280;885;42.626;23.200;2023-08-30T04:07:06;138575.91;;;17.83;94.60
1776;BME280;885;42.626;23.200;2023-08-30T04:09:33;138270.13;;;18.13;93.25
1776;BME280;885;42.626;23.200;2023-08-30T04:11:59;140568.13;;;18.39;99.51
1776;BME280;885;42.626;23.200;2023-08-30T04:14:26;141332.25;;;18.47;100.00
1776;BME280;885;42.626;23.200;2023-08-30T04:16:53;140975.81;;;18.54;99.18
1776;BME280;885;42.626;23.200;2023-08-30T04:19:21;141758.53;;;18.70;100.00
1776;BME280;885;42.626;23.200;2023-08-30T04:21:48;140981.53;;;18.57;99.75
1776;BME280;885;42.626;23.200;2023-08-30T04:24:15;141337.97;;;18.49;100.00
1776;BME280;885;42.626;23.200;2023-08-30T04:26:41;139734.31;;;18.00;100.00
1776;BME280;885;42.626;23.200;2023-08-30T04:29:08;141195.00;;;17.86;100.00
1776;BME280;885;42.626;23.200;2023-08-30T04:31:35;141933.31;;;17.83;100.00
1776;BME280;885;42.626;23.200;2023-08-30T04:34:02;142672.84;;;17.80;100.00
1776;BME280;885;42.626;23.200;2023-08-30T04:36:30;141889.63;;;17.64;100.00
1776;BME280;885;42.626;23.200;2023-08-30T04:38:57;143015.97;;;17.67;100.00
1776;BME280;885;42.626;23.200;2023-08-30T04:41:23;143760.13;;;17.66;100.00
1776;BME280;885;42.626;23.200;2023-08-30T04:43:50;144892.97;;;17.71;100.00
1776;BME280;885;42.626;23.200;2023-08-30T04:46:17;146049.97;;;17.87;100.00
1776;BME280;885;42.626;23.200;2023-08-30T04:48:43;147578.13;;;18.01;100.00
1776;BME280;885;42.626;23.200;2023-08-30T04:51:10;149760.84;;;17.76;100.00
1776;BME280;885;42.626;23.200;2023-08-30T04:53:38;151629.31;;;17.75;100.00
1776;BME280;885;42.626;23.200;2023-08-30T04:56:11;152384.88;;;17.78;100.00
1776;BME280;885;42.626;23.200;2023-08-30T04:58:38;153516.06;;;17.82;100.00
1776;BME280;885;42.626;23.200;2023-08-30T05:01:05;155003.22;;;17.78;100.00
1776;BME280;885;42.626;23.200;2023-08-30T05:03:32;155706.34;;;17.60;100.00
1776;BME280;885;42.626;23.200;2023-08-30T05:05:59;155698.78;;;17.57;100.00
1776;BME280;885;42.626;23.200;2023-08-30T05:08:25;154185.66;;;17.50;100.00
1776;BME280;885;42.626;23.200;2023-08-30T05:10:54;155337.13;;;17.62;100.00
1776;BME280;885;42.626;23.200;2023-08-30T05:13:22;155734.22;;;17.71;100.00
1776;BME280;885;42.626;23.200;2023-08-30T05:15:49;156500.84;;;17.78;100.00
1776;BME280;885;42.626;23.200;2023-08-30T05:18:15;156890.63;;;17.84;100.00
1776;BME280;885;42.626;23.200;2023-08-30T05:20:42;157262.63;;;17.83;100.00
1776;BME280;885;42.626;23.200;2023-08-30T05:23:09;158029.84;;;17.90;100.00
1776;BME280;885;42.626;23.200;2023-08-30T05:25:36;158748.31;;;17.78;100.00
1776;BME280;885;42.626;23.200;2023-08-30T05:28:04;159117.84;;;17.76;100.00
1776;BME280;885;42.626;23.200;2023-08-30T05:30:31;159512.00;;;17.83;100.00
1776;BME280;885;42.626;23.200;2023-08-30T05:32:57;159495.13;;;17.77;100.00
1776;BME280;885;42.626;23.200;2023-08-30T05:35:24;159483.44;;;17.72;100.00
1776;BME280;885;42.626;23.200;2023-08-30T05:37:51;159469.19;;;17.67;100.00
1776;BME280;885;42.626;23.200;2023-08-30T05:40:18;159855.59;;;17.71;100.00
1776;BME280;885;42.626;23.200;2023-08-30T05:42:44;160260.31;;;17.83;100.00
1776;BME280;885;42.626;23.200;2023-08-30T05:45:13;160663.94;;;17.94;100.00
1776;BME280;885;42.626;23.200;2023-08-30T05:47:40;160322.94;;;18.07;100.00
1776;BME280;885;42.626;23.200;2023-08-30T05:50:07;159984.34;;;18.21;100.00
1776;BME280;885;42.626;23.200;2023-08-30T05:52:34;159274.47;;;18.37;100.00
1776;BME280;885;42.626;23.200;2023-08-30T05:55:06;158958.91;;;18.60;100.00
1776;BME280;885;42.626;23.200;2023-08-30T05:57:34;159001.53;;;18.76;100.00
1776;BME280;885;42.626;23.200;2023-08-30T06:00:02;158639.09;;;18.81;100.00
1776;BME280;885;42.626;23.200;2023-08-30T06:02:32;158672.63;;;18.94;100.00
1776;BME280;885;42.626;23.200;2023-08-30T06:04:59;159454.53;;;19.07;100.00
1776;BME280;885;42.626;23.200;2023-08-30T06:07:26;159128.13;;;19.26;100.00
1776;BME280;885;42.626;23.200;2023-08-30T06:09:53;158392.41;;;19.32;100.00
1776;BME280;885;42.626;23.200;2023-08-30T06:12:19;157282.47;;;19.38;100.00
1776;BME280;885;42.626;23.200;2023-08-30T06:14:46;155798.38;;;19.45;100.00
1776;BME280;885;42.626;23.200;2023-08-30T06:17:17;154728.69;;;19.68;100.00
1776;BME280;885;42.626;23.200;2023-08-30T06:19:46;154798.97;;;19.96;100.00
1776;BME280;885;42.626;23.200;2023-08-30T06:22:12;152197.41;;;20.07;100.00
1776;BME280;885;42.626;23.200;2023-08-30T06:24:41;150717.72;;;20.16;100.00
1776;BME280;885;42.626;23.200;2023-08-30T06:27:08;151516.50;;;20.36;100.00
1776;BME280;885;42.626;23.200;2023-08-30T06:29:34;150832.50;;;20.64;98.86
1776;BME280;885;42.626;23.200;2023-08-30T06:32:01;149780.66;;;20.95;95.62
1776;BME280;885;42.626;23.200;2023-08-30T06:34:29;149421.84;;;21.02;95.85
1776;BME280;885;42.626;23.200;2023-08-30T06:36:57;149044.84;;;21.01;95.33
1776;BME280;885;42.626;23.200;2023-08-30T06:39:24;148678.75;;;21.05;95.89
1776;BME280;885;42.626;23.200;2023-08-30T06:41:51;148643.84;;;20.91;97.49
1776;BME280;885;42.626;23.200;2023-08-30T06:44:17;148625.81;;;20.83;98.76
1776;BME280;885;42.626;23.200;2023-08-30T06:46:45;147125.97;;;20.84;94.75
1776;BME280;885;42.626;23.200;2023-08-30T06:49:11;147089.13;;;20.69;96.34
1776;BME280;885;42.626;23.200;2023-08-30T06:51:38;147093.91;;;20.71;97.83
1776;BME280;885;42.626;23.200;2023-08-30T06:54:06;148619.81;;;20.81;100.00
1776;BME280;885;42.626;23.200;2023-08-30T06:56:33;147491.94;;;20.80;98.27
1776;BME280;885;42.626;23.200;2023-08-30T06:59:00;147873.44;;;20.83;99.11
1776;BME280;885;42.626;23.200;2023-08-30T07:01:27;148276.63;;;20.94;99.13
1776;BME280;885;42.626;23.200;2023-08-30T07:03:53;147539.69;;;21.00;96.83
1776;BME280;885;42.626;23.200;2023-08-30T07:06:20;147954.84;;;21.17;96.89
1776;BME280;885;42.626;23.200;2023-08-30T07:08:47;146032.75;;;20.98;93.55
1776;BME280;885;42.626;23.200;2023-08-30T07:11:15;146463.88;;;21.22;92.28
1776;BME280;885;42.626;23.200;2023-08-30T07:13:42;146142.53;;;21.45;90.58
1776;BME280;885;42.626;23.200;2023-08-30T07:16:08;144272.31;;;21.49;85.81
1776;BME280;885;42.626;23.200;2023-08-30T07:18:35;142780.50;;;21.53;82.75
1776;BME280;885;42.626;23.200;2023-08-30T07:21:02;142764.34;;;21.46;85.20
1776;BME280;885;42.626;23.200;2023-08-30T07:23:29;142759.72;;;21.44;87.41
1776;BME280;885;42.626;23.200;2023-08-30T07:25:55;143120.19;;;21.38;88.56
1776;BME280;885;42.626;23.200;2023-08-30T07:28:24;143123.63;;;21.39;89.32
1776;BME280;885;42.626;23.200;2023-08-30T07:30:50;143503.75;;;21.41;90.16
1776;BME280;885;42.626;23.200;2023-08-30T07:33:17;143526.91;;;21.51;90.55
1776;BME280;885;42.626;23.200;2023-08-30T07:35:44;142729.78;;;21.31;89.85
1776;BME280;885;42.626;23.200;2023-08-30T07:38:12;141154.47;;;20.98;89.36
1776;BME280;885;42.626;23.200;2023-08-30T07:40:38;141942.44;;;21.15;90.29
1776;BME280;885;42.626;23.200;2023-08-30T07:43:05;142350.97;;;21.29;90.79
1776;BME280;885;42.626;23.200;2023-08-30T07:45:33;141989.41;;;21.35;89.13
1776;BME280;885;42.626;23.200;2023-08-30T07:48:00;142778.16;;;21.52;89.37
1776;BME280;885;42.626;23.200;2023-08-30T07:50:26;142823.13;;;21.72;87.78
1776;BME280;885;42.626;23.200;2023-08-30T07:52:53;144042.00;;;22.11;87.91
1776;BME280;885;42.626;23.200;2023-08-30T07:55:20;144101.22;;;22.37;85.46
1776;BME280;885;42.626;23.200;2023-08-30T07:57:47;142164.78;;;22.12;83.23
1776;BME280;885;42.626;23.200;2023-08-30T08:00:14;141797.03;;;22.16;82.21
1776;BME280;885;42.626;23.200;2023-08-30T08:02:42;140668.63;;;22.16;79.13
1776;BME280;885;42.626;23.200;2023-08-30T08:05:09;141841.59;;;22.36;81.58
1776;BME280;885;42.626;23.200;2023-08-30T08:07:38;140363.06;;;22.47;76.94
1776;BME280;885;42.626;23.200;2023-08-30T08:10:05;138474.16;;;22.42;73.52
1776;BME280;885;42.626;23.200;2023-08-30T08:12:33;138887.91;;;22.59;74.46
1776;BME280;885;42.626;23.200;2023-08-30T08:15:00;139256.94;;;22.56;77.22
1776;BME280;885;42.626;23.200;2023-08-30T08:17:26;139641.78;;;22.60;78.98
1776;BME280;885;42.626;23.200;2023-08-30T08:19:54;139258.06;;;22.57;78.08
1776;BME280;885;42.626;23.200;2023-08-30T08:22:21;139251.31;;;22.54;78.31
1776;BME280;885;42.626;23.200;2023-08-30T08:24:48;138108.53;;;22.47;76.04
1776;BME280;885;42.626;23.200;2023-08-30T08:27:16;138134.13;;;22.58;75.74
1776;BME280;885;42.626;23.200;2023-08-30T08:29:43;137788.38;;;22.72;73.58
1776;BME280;885;42.626;23.200;2023-08-30T08:32:10;137821.66;;;22.87;72.84
1776;BME280;885;42.626;23.200;2023-08-30T08:34:37;138236.47;;;23.05;72.89
1776;BME280;885;42.626;23.200;2023-08-30T08:37:06;138651.56;;;23.22;72.56
1776;BME280;885;42.626;23.200;2023-08-30T08:39:33;138681.69;;;23.36;73.01
1776;BME280;885;42.626;23.200;2023-08-30T08:42:00;137911.50;;;23.28;72.31
1776;BME280;885;42.626;23.200;2023-08-30T08:44:31;137904.88;;;23.25;73.07
1776;BME280;885;42.626;23.200;2023-08-30T08:46:59;138679.50;;;23.35;74.25
1776;BME280;885;42.626;23.200;2023-08-30T08:49:27;139508.31;;;23.69;73.60
1776;BME280;885;42.626;23.200;2023-08-30T08:51:55;139964.81;;;24.05;70.21
1776;BME280;885;42.626;23.200;2023-08-30T08:54:24;140007.59;;;24.24;68.52
1776;BME280;885;42.626;23.200;2023-08-30T08:56:53;138849.16;;;24.11;69.12
1776;BME280;885;42.626;23.200;2023-08-30T08:59:21;137679.28;;;23.93;68.45
1776;BME280;885;42.626;23.200;2023-08-30T09:01:48;138019.19;;;23.77;71.71
1776;BME280;885;42.626;23.200;2023-08-30T09:04:15;137662.69;;;23.86;70.55
1776;BME280;885;42.626;23.200;2023-08-30T09:06:42;138045.81;;;23.89;71.28
1776;BME280;885;42.626;23.200;2023-08-30T09:09:09;138062.47;;;23.96;70.02
1776;BME280;885;42.626;23.200;2023-08-30T09:11:38;138874.84;;;24.23;70.51
1776;BME280;885;42.626;23.200;2023-08-30T09:14:04;139303.16;;;24.46;68.48
1776;BME280;885;42.626;23.200;2023-08-30T09:16:31;140145.03;;;24.85;66.90
1776;BME280;885;42.626;23.200;2023-08-30T09:18:58;140575.41;;;25.09;66.41
1776;BME280;885;42.626;23.200;2023-08-30T09:21:25;138307.91;;;25.07;62.32
1776;BME280;885;42.626;23.200;2023-08-30T09:23:59;139113.84;;;25.31;63.79
1776;BME280;885;42.626;23.200;2023-08-30T09:26:27;139129.50;;;25.38;63.07
1776;BME280;885;42.626;23.200;2023-08-30T09:29:00;139936.31;;;25.61;63.93
1776;BME280;885;42.626;23.200;2023-08-30T09:31:32;140396.28;;;25.97;62.36
1776;BME280;885;42.626;23.200;2023-08-30T09:33:59;140056.59;;;26.15;61.45
1776;BME280;885;42.626;23.200;2023-08-30T09:36:32;138885.75;;;25.98;60.93
1776;BME280;885;42.626;23.200;2023-08-30T09:39:05;138908.06;;;26.08;61.55
1776;BME280;885;42.626;23.200;2023-08-30T09:41:32;140502.31;;;26.45;62.35
1776;BME280;885;42.626;23.200;2023-08-30T09:44:06;139764.88;;;26.53;59.04
1776;BME280;885;42.626;23.200;2023-08-30T09:46:39;138574.66;;;26.28;61.46
1776;BME280;885;42.626;23.200;2023-08-30T09:49:06;139386.63;;;26.53;60.52
1776;BME280;885;42.626;23.200;2023-08-30T09:51:35;139843.41;;;26.89;58.35
1776;BME280;885;42.626;23.200;2023-08-30T09:54:04;140294.97;;;27.21;57.84
1776;BME280;885;42.626;23.200;2023-08-30T09:56:32;139164.53;;;27.24;55.32
1776;BME280;885;42.626;23.200;2023-08-30T09:59:03;136453.75;;;26.96;54.83
1776;BME280;885;42.626;23.200;2023-08-30T10:01:31;133290.28;;;26.30;56.07
1776;BME280;885;42.626;23.200;2023-08-30T10:03:58;133332.97;;;26.50;54.57
1776;BME280;885;42.626;23.200;2023-08-30T10:06:26;133327.63;;;26.48;56.08
1776;BME280;885;42.626;23.200;2023-08-30T10:08:54;132194.84;;;26.48;53.54
1776;BME280;885;42.626;23.200;2023-08-30T10:11:24;132179.00;;;26.40;56.89
1776;BME280;885;42.626;23.200;2023-08-30T10:13:51;130249.25;;;26.20;53.36
1776;BME280;885;42.626;23.200;2023-08-30T10:16:20;132223.44;;;26.61;54.91
1776;BME280;885;42.626;23.200;2023-08-30T10:18:52;134232.34;;;27.18;53.85
1776;BME280;885;42.626;23.200;2023-08-30T10:21:21;134300.06;;;27.49;52.31
1776;BME280;885;42.626;23.200;2023-08-30T10:23:49;131932.41;;;27.03;53.48
1776;BME280;885;42.626;23.200;2023-08-30T10:26:22;133136.41;;;27.36;52.93
1776;BME280;885;42.626;23.200;2023-08-30T10:28:52;131953.50;;;27.13;53.25
1776;BME280;885;42.626;23.200;2023-08-30T10:31:20;128796.38;;;26.47;53.18
1776;BME280;885;42.626;23.200;2023-08-30T10:33:48;127251.19;;;26.29;52.97
1776;BME280;885;42.626;23.200;2023-08-30T10:36:20;127244.03;;;26.25;53.43
1776;BME280;885;42.626;23.200;2023-08-30T10:38:49;127250.16;;;26.28;53.14
1776;BME280;885;42.626;23.200;2023-08-30T10:41:20;127998.00;;;26.25;55.89
1776;BME280;885;42.626;23.200;2023-08-30T10:43:50;125652.09;;;25.83;55.28
1776;BME280;885;42.626;23.200;2023-08-30T10:46:28;126045.78;;;25.91;54.93
1776;BME280;885;42.626;23.200;2023-08-30T10:48:56;126061.91;;;25.99;55.32
1776;BME280;885;42.626;23.200;2023-08-30T10:51:35;125263.56;;;25.77;55.93
1776;BME280;885;42.626;23.200;2023-08-30T10:54:10;125314.63;;;26.02;53.23
1776;BME280;885;42.626;23.200;2023-08-30T10:56:45;124944.03;;;26.06;52.30
1776;BME280;885;42.626;23.200;2023-08-30T10:59:16;127288.81;;;26.47;53.52
1776;BME280;885;42.626;23.200;2023-08-30T11:01:43;127385.50;;;26.95;48.31
1776;BME280;885;42.626;23.200;2023-08-30T11:04:14;129360.72;;;27.38;48.40
1776;BME280;885;42.626;23.200;2023-08-30T11:06:42;129030.31;;;27.61;46.76
1776;BME280;885;42.626;23.200;2023-08-30T11:09:13;125570.19;;;27.31;45.36
1776;BME280;885;42.626;23.200;2023-08-30T11:11:40;124403.28;;;27.13;45.65
1776;BME280;885;42.626;23.200;2023-08-30T11:14:07;121668.47;;;26.64;45.98
1776;BME280;885;42.626;23.200;2023-08-30T11:16:34;118933.06;;;26.11;46.65
1776;BME280;885;42.626;23.200;2023-08-30T11:19:02;121658.75;;;26.59;46.72
1776;BME280;885;42.626;23.200;2023-08-30T11:21:31;120899.59;;;26.62;45.62
1776;BME280;885;42.626;23.200;2023-08-30T11:23:58;124451.97;;;27.38;45.19
1776;BME280;885;42.626;23.200;2023-08-30T11:26:25;127213.22;;;27.97;44.98
1776;BME280;885;42.626;23.200;2023-08-30T11:28:52;126095.50;;;28.05;43.16
1776;BME280;885;42.626;23.200;2023-08-30T11:31:19;122982.00;;;27.58;42.27
1776;BME280;885;42.626;23.200;2023-08-30T11:33:51;121400.22;;;27.20;44.06
1776;BME280;885;42.626;23.200;2023-08-30T11:36:20;125707.59;;;28.00;44.22
1776;BME280;885;42.626;23.200;2023-08-30T11:38:49;126549.13;;;28.43;42.73
1776;BME280;885;42.626;23.200;2023-08-30T11:41:16;126578.44;;;28.57;41.75
1776;BME280;885;42.626;23.200;2023-08-30T11:43:43;125039.66;;;28.44;40.93
1776;BME280;885;42.626;23.200;2023-08-30T11:46:10;122696.56;;;28.05;41.51
1776;BME280;885;42.626;23.200;2023-08-30T11:48:38;122275.09;;;27.83;43.00
1776;BME280;885;42.626;23.200;2023-08-30T11:51:05;122290.69;;;27.91;42.22
1776;BME280;885;42.626;23.200;2023-08-30T11:53:33;124662.56;;;28.45;41.87
1776;BME280;885;42.626;23.200;2023-08-30T11:56:01;126672.31;;;29.04;40.65
1776;BME280;885;42.626;23.200;2023-08-30T11:58:31;125519.75;;;28.95;39.26
1776;BME280;885;42.626;23.200;2023-08-30T12:00:59;124765.94;;;28.97;39.61
1776;BME280;885;42.626;23.200;2023-08-30T12:03:26;126686.47;;;29.11;41.10
1776;BME280;885;42.626;23.200;2023-08-30T12:05:54;126350.19;;;29.32;39.02
1776;BME280;885;42.626;23.200;2023-08-30T12:08:23;121582.91;;;28.60;38.25
1776;BME280;885;42.626;23.200;2023-08-30T12:10:51;122455.50;;;28.76;38.86
1776;BME280;885;42.626;23.200;2023-08-30T12:13:23;124023.13;;;29.04;39.51
1776;BME280;885;42.626;23.200;2023-08-30T12:15:50;124034.97;;;29.10;39.32
1776;BME280;885;42.626;23.200;2023-08-30T12:18:20;120365.09;;;29.13;35.15
1776;BME280;885;42.626;23.200;2023-08-30T12:20:54;119484.03;;;29.28;34.85
1776;BME280;885;42.626;23.200;2023-08-30T12:23:22;117302.31;;;28.95;35.85
1776;BME280;885;42.626;23.200;2023-08-30T12:25:59;117062.13;;;28.88;36.12
1776;BME280;885;42.626;23.200;2023-08-30T12:28:28;115059.03;;;28.49;36.33
1776;BME280;885;42.626;23.200;2023-08-30T12:30:57;114793.19;;;28.53;36.32
1776;BME280;885;42.626;23.200;2023-08-30T12:33:24;113788.75;;;28.52;35.12
1776;BME280;885;42.626;23.200;2023-08-30T12:35:52;116542.75;;;29.07;35.23
1776;BME280;885;42.626;23.200;2023-08-30T12:38:19;116851.28;;;29.19;34.91
1776;BME280;885;42.626;23.200;2023-08-30T12:40:46;118307.72;;;29.50;34.88
1776;BME280;885;42.626;23.200;2023-08-30T12:43:14;114605.16;;;28.57;37.06
1776;BME280;885;42.626;23.200;2023-08-30T12:45:42;115661.25;;;29.02;35.31
1776;BME280;885;42.626;23.200;2023-08-30T12:48:11;116915.22;;;29.28;35.49
1776;BME280;885;42.626;23.200;2023-08-30T12:50:39;117080.72;;;29.44;34.68
1776;BME280;885;42.626;23.200;2023-08-30T12:53:06;118503.31;;;29.77;34.56
1776;BME280;885;42.626;23.200;2023-08-30T12:55:34;116143.22;;;29.26;35.05
1776;BME280;885;42.626;23.200;2023-08-30T12:58:01;117772.44;;;29.67;34.67
1776;BME280;885;42.626;23.200;2023-08-30T13:00:28;119173.75;;;29.96;34.66
1776;BME280;885;42.626;23.200;2023-08-30T13:02:57;116833.47;;;29.64;33.99
1776;BME280;885;42.626;23.200;2023-08-30T13:05:24;115575.31;;;29.51;33.85
1776;BME280;885;42.626;23.200;2023-08-30T13:07:50;115154.50;;;29.27;34.58